createdAt,value
2023-01-17T00:02:36.355Z,100492.56
2023-01-17T00:07:41.712Z,100502.13
2023-01-17T00:12:48.502Z,100499.56
2023-01-17T00:17:52.393Z,100519.88
2023-01-17T00:22:57.679Z,100515.03
2023-01-17T00:28:01.602Z,100521.19
2023-01-17T00:33:05.344Z,100534.41
2023-01-17T00:38:11.949Z,100536.38
2023-01-17T00:43:18.285Z,100543.88
2023-01-17T00:48:21.890Z,100552.44
2023-01-17T00:53:27.194Z,100551.66
2023-01-17T00:58:30.832Z,100547.44
2023-01-17T01:03:34.429Z,100557.72
2023-01-17T01:08:39.721Z,100552.88
2023-01-17T01:13:43.361Z,100566.63
2023-01-17T01:18:47.005Z,100551.63
2023-01-17T01:23:52.270Z,100545.41
2023-01-17T01:28:56.088Z,100549.16
2023-01-17T01:33:59.703Z,100547.06
2023-01-17T01:39:05.075Z,100544.47
2023-01-17T01:44:45.052Z,100542.47
2023-01-17T01:49:49.806Z,100547.38
2023-01-17T01:54:58.792Z,100564.34
2023-01-17T02:00:06.089Z,100582.97
2023-01-17T02:05:11.747Z,100598.28
2023-01-17T02:10:17.372Z,100610.44
2023-01-17T02:15:23.253Z,100602.53
2023-01-17T02:21:05.463Z,100617.63
2023-01-17T02:26:37.709Z,100621.94
2023-01-17T02:31:48.233Z,100629.25
2023-01-17T02:36:56.798Z,100626.78
2023-01-17T02:42:05.275Z,100630.16
2023-01-17T02:47:23.786Z,100630.72
2023-01-17T02:52:54.615Z,100630.84
2023-01-17T02:58:16.383Z,100636.16
2023-01-17T03:03:30.612Z,100635.28
2023-01-17T03:08:34.358Z,100645.16
2023-01-17T03:13:38.074Z,100651.22
2023-01-17T03:18:43.402Z,100670.53
2023-01-17T03:23:47.037Z,100672.78
2023-01-17T03:28:50.685Z,100678.06
2023-01-17T03:34:00.530Z,100677.69
2023-01-17T03:39:21.599Z,100685.84
2023-01-17T03:44:25.239Z,100683.56
2023-01-17T03:49:30.498Z,100706.22
2023-01-17T03:54:34.147Z,100707.06
2023-01-17T03:59:37.790Z,100712.25
2023-01-17T04:04:43.074Z,100721.84
2023-01-17T04:09:46.695Z,100729.91
2023-01-17T04:14:50.320Z,100724.84
2023-01-17T04:19:55.862Z,100734.22
2023-01-17T04:24:59.614Z,100743.09
2023-01-17T04:30:03.249Z,100748.47
2023-01-17T04:35:09.221Z,100759.88
2023-01-17T04:40:13.904Z,100762.50
2023-01-17T04:45:17.963Z,100769.34
2023-01-17T04:50:23.310Z,100777.84
2023-01-17T04:55:27.084Z,100774.44
2023-01-17T05:00:30.726Z,100788.66
2023-01-17T05:05:36.062Z,100793.16
2023-01-17T05:10:39.737Z,100796.69
2023-01-17T05:15:43.441Z,100800.22
2023-01-17T05:20:48.705Z,100812.50
2023-01-17T05:25:52.332Z,100822.00
2023-01-17T05:30:55.978Z,100831.75
2023-01-17T05:36:01.277Z,100819.63
2023-01-17T05:41:04.983Z,100830.91
2023-01-17T05:46:08.707Z,100826.56
2023-01-17T05:51:14.942Z,100835.25
2023-01-17T05:56:17.839Z,100834.44
2023-01-17T06:01:22.183Z,100847.59
2023-01-17T06:06:30.310Z,100839.78
2023-01-17T06:11:33.979Z,100841.59
2023-01-17T06:16:37.581Z,100853.91
2023-01-17T06:21:42.849Z,100861.59
2023-01-17T06:26:46.455Z,100875.53
2023-01-17T06:31:50.437Z,100876.50
2023-01-17T06:36:55.770Z,100883.34
2023-01-17T06:41:59.499Z,100889.41
2023-01-17T06:47:03.151Z,100905.16
2023-01-17T06:52:08.474Z,100902.53
2023-01-17T06:57:12.093Z,100905.13
2023-01-17T07:02:15.730Z,100925.13
2023-01-17T07:07:21.022Z,100925.97
2023-01-17T07:12:24.645Z,100936.50
2023-01-17T07:17:28.254Z,100942.63
2023-01-17T07:22:33.581Z,100944.44
2023-01-17T07:27:37.253Z,100951.53
2023-01-17T07:32:40.892Z,100957.72
2023-01-17T07:37:50.937Z,100962.13
2023-01-17T07:43:00.926Z,100954.38
2023-01-17T07:48:04.693Z,100957.91
2023-01-17T07:53:09.959Z,100962.31
2023-01-17T07:58:13.561Z,100953.50
2023-01-17T08:03:18.555Z,100956.94
2023-01-17T08:08:23.914Z,100952.53
2023-01-17T08:13:29.093Z,100949.44
2023-01-17T08:18:33.514Z,100941.53
2023-01-17T08:23:38.813Z,100944.16
2023-01-17T08:28:42.432Z,100949.44
2023-01-17T08:33:46.953Z,100950.25
2023-01-17T08:38:52.282Z,100957.03
2023-01-17T08:43:55.981Z,100962.25
2023-01-17T08:49:00.231Z,100970.06
2023-01-17T08:54:05.660Z,100970.09
2023-01-17T08:59:11.860Z,100969.22
2023-01-17T09:04:15.637Z,100973.66
2023-01-17T09:09:21.049Z,100989.38
2023-01-17T09:14:24.706Z,100992.19
2023-01-17T09:19:28.781Z,100996.69
2023-01-17T09:24:34.225Z,101005.50
2023-01-17T09:29:37.830Z,101004.75
2023-01-17T09:34:41.460Z,101017.81
2023-01-17T09:39:47.232Z,101016.00
2023-01-17T09:44:52.743Z,101014.22
2023-01-17T09:50:01.139Z,101014.28
2023-01-17T09:55:08.167Z,101015.97
2023-01-17T10:00:30.106Z,101022.88
2023-01-17T10:05:51.021Z,101038.47
2023-01-17T10:11:18.162Z,101038.47
2023-01-17T10:16:34.783Z,101033.28
2023-01-17T10:21:46.266Z,101022.09
2023-01-17T10:26:54.795Z,101028.16
2023-01-17T10:32:00.836Z,101028.16
2023-01-17T10:37:17.119Z,101035.06
2023-01-17T10:42:27.252Z,101042.06
2023-01-17T10:47:35.108Z,101047.31
2023-01-17T10:52:48.109Z,101021.28
2023-01-17T10:57:54.767Z,101038.84
2023-01-17T11:02:59.293Z,101051.84
2023-01-17T11:08:04.629Z,101054.47
2023-01-17T11:13:24.557Z,101051.81
2023-01-17T11:18:30.716Z,101051.84
2023-01-17T11:23:35.027Z,101048.44
2023-01-17T11:28:41.698Z,101050.22
2023-01-17T11:33:46.714Z,101046.78
2023-01-17T11:38:58.742Z,101055.50
2023-01-17T11:44:05.191Z,101041.66
2023-01-17T11:49:23.357Z,101044.25
2023-01-17T11:54:30.053Z,101056.34
2023-01-17T11:59:36.976Z,101053.78
2023-01-17T12:04:43.892Z,101053.78
2023-01-17T12:09:58.214Z,101059.00
2023-01-17T12:15:11.675Z,101059.84
2023-01-17T12:20:25.471Z,101064.19
2023-01-17T12:25:45.674Z,101065.91
2023-01-17T12:31:08.156Z,101078.00
2023-01-17T12:36:22.896Z,101077.16
2023-01-17T12:41:31.647Z,101071.09
2023-01-17T12:46:43.104Z,101092.69
2023-01-17T12:51:50.314Z,101091.84
2023-01-17T12:56:57.306Z,101106.53
2023-01-17T13:02:14.039Z,101110.84
2023-01-17T13:07:25.052Z,101110.81
2023-01-17T13:12:32.127Z,101112.56
2023-01-17T13:17:44.350Z,101122.91
2023-01-17T13:22:48.649Z,101116.00
2023-01-17T13:28:04.505Z,101131.56
2023-01-17T13:33:28.075Z,101127.22
2023-01-17T13:38:44.552Z,101136.72
2023-01-17T13:43:48.354Z,101141.06
2023-01-17T13:49:32.263Z,101144.50
2023-01-17T13:54:43.092Z,101140.19
2023-01-17T13:59:46.696Z,101142.75
2023-01-17T14:05:13.901Z,101143.50
2023-01-17T14:10:27.863Z,101153.00
2023-01-17T14:15:34.244Z,101156.47
2023-01-17T14:20:51.993Z,101153.91
2023-01-17T14:26:00.540Z,101159.09
2023-01-17T14:31:11.169Z,101161.69
2023-01-17T14:36:25.703Z,101172.81
2023-01-17T14:41:30.169Z,101184.81
2023-01-17T14:46:35.346Z,101196.88
2023-01-17T14:51:41.302Z,101201.16
2023-01-17T14:56:44.893Z,101216.66
2023-01-17T15:02:06.021Z,101226.13
2023-01-17T15:07:17.415Z,101231.28
2023-01-17T15:12:21.050Z,101233.75
2023-01-17T15:17:25.671Z,101244.91
2023-01-17T15:22:31.304Z,101248.44
2023-01-17T15:27:35.172Z,101257.88
2023-01-17T15:32:39.549Z,101263.88
2023-01-17T15:37:45.002Z,101263.84
2023-01-17T15:42:52.402Z,101263.13
2023-01-17T15:47:56.076Z,101276.22
2023-01-17T15:53:02.773Z,101283.28
2023-01-17T15:58:22.742Z,101283.44
2023-01-17T16:03:27.882Z,101297.44
2023-01-17T16:08:37.691Z,101306.13
2023-01-17T16:13:42.233Z,101305.28
2023-01-17T16:18:46.871Z,101315.69
2023-01-17T16:23:52.459Z,101326.97
2023-01-17T16:28:56.372Z,101345.16
2023-01-17T16:34:00.775Z,101338.19
2023-01-17T16:39:06.147Z,101348.66
2023-01-17T16:44:11.295Z,101363.41
2023-01-17T16:49:14.890Z,101372.94
2023-01-17T16:54:20.247Z,101375.47
2023-01-17T16:59:23.903Z,101384.97
2023-01-17T17:04:27.573Z,101391.00
2023-01-17T17:09:32.831Z,101396.91
2023-01-17T17:14:36.491Z,101394.13
2023-01-17T17:19:40.126Z,101406.97
2023-01-17T17:24:45.423Z,101417.19
2023-01-17T17:29:49.058Z,101423.22
2023-01-17T17:34:52.696Z,101429.84
2023-01-17T17:39:58.278Z,101441.84
2023-01-17T17:45:01.912Z,101431.19
2023-01-17T17:50:05.998Z,101434.34
2023-01-17T17:55:11.349Z,101442.88
2023-01-17T18:00:15.715Z,101437.38
2023-01-17T18:05:19.353Z,101439.75
2023-01-17T18:10:24.634Z,101448.03
2023-01-17T18:15:28.284Z,101450.34
2023-01-17T18:20:32.051Z,101449.16
2023-01-17T18:25:38.272Z,101453.50
2023-01-17T18:30:41.101Z,101460.03
2023-01-17T18:35:54.698Z,101464.06
2023-01-17T18:41:03.517Z,101458.63
2023-01-17T18:46:08.549Z,101462.59
2023-01-17T18:51:14.470Z,101454.00
2023-01-17T18:56:20.743Z,101458.16
2023-01-17T19:01:27.101Z,101458.59
2023-01-17T19:06:32.722Z,101450.34
2023-01-17T19:11:38.059Z,101435.16
2023-01-17T19:16:42.764Z,101435.13
2023-01-17T19:21:46.427Z,101424.81
2023-01-17T19:26:53.248Z,101422.84
2023-01-17T19:31:56.974Z,101417.47
2023-01-17T19:37:00.634Z,101405.28
2023-01-17T19:42:06.053Z,101402.06
2023-01-17T19:47:09.688Z,101385.28
2023-01-17T19:52:13.330Z,101377.38
2023-01-17T19:57:18.647Z,101374.38
2023-01-17T20:02:22.363Z,101374.47
2023-01-17T20:07:26.043Z,101370.63
2023-01-17T20:12:31.857Z,101365.97
2023-01-17T20:17:35.583Z,101353.47
2023-01-17T20:22:41.839Z,101354.38
2023-01-17T20:27:47.139Z,101353.34
2023-01-17T20:32:50.753Z,101342.44
2023-01-17T20:37:54.597Z,101333.44
2023-01-17T20:43:00.011Z,101324.16
2023-01-17T20:48:03.612Z,101328.88
2023-01-17T20:53:07.249Z,101320.28
2023-01-17T20:58:13.517Z,101320.28
2023-01-17T21:03:17.114Z,101322.16
2023-01-17T21:08:20.706Z,101314.81
2023-01-17T21:13:26.601Z,101316.75
2023-01-17T21:18:31.473Z,101313.09
2023-01-17T21:23:35.385Z,101306.59
2023-01-17T21:28:41.815Z,101309.78
2023-01-17T21:33:45.827Z,101291.56
2023-01-17T21:38:50.463Z,101289.19
2023-01-17T21:43:58.158Z,101284.84
2023-01-17T21:49:01.808Z,101295.94
2023-01-17T21:54:05.485Z,101292.53
2023-01-17T21:59:11.811Z,101287.63
2023-01-17T22:04:15.443Z,101290.63
2023-01-17T22:09:19.134Z,101298.31
2023-01-17T22:14:24.398Z,101295.06
2023-01-17T22:19:28.065Z,101288.38
2023-01-17T22:24:31.717Z,101288.88
2023-01-17T22:29:37.114Z,101299.00
2023-01-17T22:34:40.772Z,101294.78
2023-01-17T22:39:44.372Z,101292.34
2023-01-17T22:44:49.650Z,101298.59
2023-01-17T22:49:53.272Z,101309.13
2023-01-17T22:54:56.922Z,101309.31
2023-01-17T23:00:02.190Z,101302.34
2023-01-17T23:05:06.261Z,101307.81
2023-01-17T23:10:14.721Z,101317.41
2023-01-17T23:15:20.369Z,101314.91
2023-01-17T23:20:23.987Z,101320.25
2023-01-17T23:25:27.658Z,101319.44
2023-01-17T23:30:35.194Z,101323.13
2023-01-17T23:35:42.214Z,101332.34
2023-01-17T23:40:47.026Z,101330.53
2023-01-17T23:45:53.186Z,101330.91
2023-01-17T23:50:59.329Z,101332.81
2023-01-17T23:56:06.851Z,101332.84
